Current Weather

Mahshahr

Mahshahr, Iran (OIAM)

Report from: Monday, July 15, 2024 6:00 AM UTC
Current time: Monday, July 15, 2024 6:15 AM UTC

Nearby weather – Weather history – Daily summaries
Weather forecast

Temperature39.0°C (102.2°F)
Heat index39.3°C (102.7°F)
Dew point15.0°C (59.0°F)
Winds 6 kts (3.1 m/s, 6.9 mph) West-Northwest (300°)
Clouds Sky clear
Altimeter29.41 in.Hg (996 mB)
Relative humidity24 %
Density altitude3,516 ft. (1,072 m)
Remarks Ceiling and visibility OK
Flight conditions Visual Meteorological Conditions
Raw dataOIAM 150600Z 30006KT CAVOK 39/15 Q0996
An error has occurred. This application may no longer respond until reloaded. Reload 🗙